Time;durP1;ratioP1;P1;durP2;ratioP2;P2;SDS_P1;SDS_P2;PMS_P1;PMS_P2;Temp;Humidity;BMP_temperature;BMP_pressure;BME280_temperature;BME280_humidity;BME280_pressure;Samples;Min_cycle;Max_cycle;Signal;HPM_P1;HPM_P2
2021/11/07 00:05:06;;;;;;;35.33;20.20;;;6.00;99.90;;;;;;5052328;28;20122;-52
2021/11/07 00:07:46;;;;;;;32.03;19.60;;;6.00;99.90;;;;;;5051491;28;20017;-53
2021/11/07 00:12:42;;;;;;;35.22;20.30;;;6.00;99.90;;;;;;5050287;28;20025;-51
2021/11/07 00:15:09;;;;;;;36.13;19.85;;;6.00;99.90;;;;;;5052023;28;20032;-52
2021/11/07 00:17:36;;;;;;;34.92;18.88;;;6.10;99.90;;;;;;5051162;28;20124;-54
2021/11/07 00:20:17;;;;;;;35.97;19.60;;;6.00;99.90;;;;;;5051974;28;20025;-52
2021/11/07 00:25:24;;;;;;;38.35;20.52;;;6.00;99.90;;;;;;5052087;28;20029;-48
2021/11/07 00:27:53;;;;;;;;;;;6.00;99.90;;;;;;5051534;28;20017;-50
2021/11/07 00:38:21;;;;;;;45.00;23.40;;;5.90;99.90;;;;;;5039158;28;20091;-53
2021/11/07 00:43:24;;;;;;;47.05;25.35;;;5.80;99.90;;;;;;5051257;28;20104;-54
2021/11/07 00:48:23;;;;;;;46.45;25.70;;;5.90;99.90;;;;;;5050824;28;20036;-55
2021/11/07 00:51:08;;;;;;;44.63;26.02;;;5.90;99.90;;;;;;5051249;28;20479;-55
2021/11/07 00:58:59;;;;;;;44.08;24.27;;;5.80;99.90;;;;;;5050694;28;20029;-51
2021/11/07 01:01:28;;;;;;;44.03;22.80;;;5.80;99.90;;;;;;5051267;28;20379;-51
2021/11/07 01:03:55;;;;;;;39.47;21.52;;;5.90;99.90;;;;;;5033267;28;20051;-50
2021/11/07 01:06:21;;;;;;;37.28;20.20;;;5.90;99.90;;;;;;5050431;28;20020;-48
2021/11/07 01:08:48;;;;;;;34.08;18.58;;;5.80;99.90;;;;;;5050927;28;20108;-46
2021/11/07 01:11:14;;;;;;;39.13;19.48;;;5.90;99.90;;;;;;5050991;28;20036;-55
2021/11/07 01:13:40;;;;;;;36.47;19.83;;;5.90;99.90;;;;;;5050877;28;20540;-51
2021/11/07 01:16:06;;;;;;;32.70;19.10;;;5.90;99.90;;;;;;5032711;28;20033;-51
2021/11/07 01:18:33;;;;;;;33.47;21.20;;;5.80;99.90;;;;;;5050630;28;20021;-54
2021/11/07 01:20:58;;;;;;;32.20;17.67;;;5.80;99.90;;;;;;5051085;28;20028;-50
2021/11/07 01:23:34;;;;;;;33.78;18.23;;;5.80;99.90;;;;;;5050674;28;20032;-51
2021/11/07 01:26:09;;;;;;;33.10;18.35;;;5.80;99.90;;;;;;5050852;28;20014;-57
2021/11/07 01:28:41;;;;;;;30.88;18.02;;;5.80;99.90;;;;;;5050301;28;20051;-53
2021/11/07 01:31:07;;;;;;;31.92;18.20;;;5.80;99.90;;;;;;5032721;28;20452;-50
2021/11/07 01:33:32;;;;;;;30.67;18.92;;;5.80;99.90;;;;;;5050526;28;20147;-53
2021/11/07 01:38:49;;;;;;;33.80;19.25;;;5.80;99.90;;;;;;5048698;28;20036;-52
2021/11/07 01:41:25;;;;;;;28.90;17.55;;;5.80;99.90;;;;;;5050630;28;20025;-53
2021/11/07 01:43:54;;;;;;;27.38;17.65;;;5.80;99.90;;;;;;5050452;28;20032;-48
2021/11/07 01:51:45;;;;;;;29.05;17.02;;;5.80;99.90;;;;;;5050865;28;20563;-53
2021/11/07 01:54:25;;;;;;;29.58;17.40;;;5.80;99.90;;;;;;5050722;28;20050;-50
2021/11/07 01:56:51;;;;;;;35.65;19.42;;;5.70;99.90;;;;;;5049840;28;20390;-50
2021/11/07 01:59:17;;;;;;;27.80;17.92;;;5.70;99.90;;;;;;5032191;28;20021;-53
2021/11/07 02:01:44;;;;;;;31.20;18.45;;;5.70;99.90;;;;;;5050274;28;20490;-53
2021/11/07 02:04:10;;;;;;;30.73;19.45;;;5.70;99.90;;;;;;5032254;28;20086;-48
2021/11/07 02:06:35;;;;;;;29.48;18.13;;;5.70;99.90;;;;;;5049178;28;20552;-50
2021/11/07 02:09:01;;;;;;;29.05;19.98;;;5.70;99.90;;;;;;5031085;28;20108;-52
2021/11/07 02:11:27;;;;;;;33.63;19.88;;;5.70;99.90;;;;;;5054156;28;20024;-54
2021/11/07 02:13:54;;;;;;;33.20;18.00;;;5.70;99.90;;;;;;5054105;28;20060;-54
2021/11/07 02:16:21;;;;;;;28.83;18.20;;;5.70;99.90;;;;;;5053509;28;20478;-50
2021/11/07 02:18:47;;;;;;;31.08;18.98;;;5.70;99.90;;;;;;5054075;28;20021;-53
2021/11/07 02:21:13;;;;;;;33.72;19.92;;;5.70;99.90;;;;;;5036075;28;20363;-52
2021/11/07 02:23:38;;;;;;;34.00;19.48;;;5.70;99.90;;;;;;5053887;28;20029;-49
2021/11/07 02:26:05;;;;;;;32.83;20.35;;;5.70;99.90;;;;;;5054063;28;20113;-45
2021/11/07 02:28:44;;;;;;;33.42;18.75;;;5.80;99.90;;;;;;5035739;28;20033;-53
2021/11/07 02:31:12;;;;;;;32.05;19.00;;;5.80;99.90;;;;;;5053968;28;20105;-52
2021/11/07 02:33:38;;;;;;;30.35;18.00;;;5.80;99.90;;;;;;5054191;28;20033;-49
2021/11/07 02:36:09;;;;;;;27.92;17.30;;;5.70;99.90;;;;;;5035935;28;20431;-55
2021/11/07 02:38:36;;;;;;;24.80;15.60;;;5.70;99.90;;;;;;5053496;28;20474;-50
2021/11/07 02:41:03;;;;;;;28.48;16.75;;;5.70;99.90;;;;;;5035826;28;20037;-51
2021/11/07 02:43:29;;;;;;;28.60;16.55;;;5.60;99.90;;;;;;5053646;28;20601;-50
2021/11/07 02:45:55;;;;;;;26.65;16.50;;;5.50;99.90;;;;;;5053662;28;20025;-48
2021/11/07 02:48:20;;;;;;;27.27;16.08;;;5.40;99.90;;;;;;5052961;28;20017;-48
2021/11/07 02:50:46;;;;;;;30.45;16.95;;;5.40;99.90;;;;;;5053513;28;20025;-54
2021/11/07 02:53:12;;;;;;;25.90;16.40;;;5.40;99.90;;;;;;5053464;28;20061;-48
2021/11/07 02:55:38;;;;;;;31.30;17.85;;;5.30;99.90;;;;;;5053551;28;20116;-50
2021/11/07 02:58:04;;;;;;;23.88;15.77;;;5.30;99.90;;;;;;5034823;28;20021;-50
2021/11/07 03:00:32;;;;;;;30.50;17.67;;;5.30;99.90;;;;;;5053455;28;20021;-49
2021/11/07 03:02:58;;;;;;;27.85;16.73;;;5.20;99.90;;;;;;5053206;28;20029;-51
2021/11/07 03:05:24;;;;;;;26.70;16.20;;;5.20;99.90;;;;;;5053350;28;20028;-52
2021/11/07 03:07:50;;;;;;;28.73;16.58;;;5.20;99.90;;;;;;5052671;28;20029;-51
2021/11/07 03:10:17;;;;;;;28.20;15.82;;;5.20;99.90;;;;;;5053228;28;20059;-48
2021/11/07 03:12:44;;;;;;;32.50;16.92;;;5.10;99.90;;;;;;5053269;28;20516;-53
2021/11/07 03:15:14;;;;;;;26.30;17.38;;;5.10;99.90;;;;;;5035324;28;20398;-53
2021/11/07 03:17:40;;;;;;;27.15;16.17;;;5.10;99.90;;;;;;5052498;28;20028;-49
2021/11/07 03:20:08;;;;;;;31.20;16.67;;;5.10;99.90;;;;;;5034480;28;20128;-51
2021/11/07 03:22:34;;;;;;;28.67;17.20;;;5.00;99.90;;;;;;5052682;28;20021;-52
2021/11/07 03:25:02;;;;;;;29.77;17.75;;;5.10;99.90;;;;;;5052861;28;20087;-53
2021/11/07 03:27:38;;;;;;;30.52;18.00;;;5.10;99.90;;;;;;5034374;28;20296;-49
2021/11/07 03:30:18;;;;;;;29.92;18.70;;;5.10;99.90;;;;;;5035006;28;20029;-51
2021/11/07 03:36:18;;;;;;;32.65;18.92;;;5.10;99.90;;;;;;5034558;28;20040;-53
2021/11/07 03:38:46;;;;;;;28.98;17.70;;;5.10;99.90;;;;;;5050747;28;20029;-53
2021/11/07 03:41:12;;;;;;;28.80;17.77;;;5.20;99.90;;;;;;5052689;28;20393;-53
2021/11/07 03:43:39;;;;;;;26.63;16.95;;;5.20;99.90;;;;;;5052502;28;20096;-53
2021/11/07 03:46:04;;;;;;;25.92;17.90;;;5.20;99.90;;;;;;5052498;28;20021;-49
2021/11/07 03:48:30;;;;;;;28.13;17.55;;;5.20;99.90;;;;;;5052225;28;20549;-54
2021/11/07 03:50:57;;;;;;;31.27;16.60;;;5.20;99.90;;;;;;5052433;28;20493;-54
2021/11/07 03:53:23;;;;;;;33.10;18.65;;;5.20;99.90;;;;;;5052504;28;20437;-49
2021/11/07 03:55:49;;;;;;;31.30;17.92;;;5.20;99.90;;;;;;5052373;28;20029;-51
2021/11/07 03:58:15;;;;;;;32.55;19.10;;;5.20;99.90;;;;;;5051587;28;20096;-50
2021/11/07 04:00:41;;;;;;;30.88;18.63;;;5.20;99.90;;;;;;5052327;28;20509;-53
2021/11/07 04:03:06;;;;;;;30.00;19.52;;;5.20;99.90;;;;;;5052126;28;20039;-56
2021/11/07 04:05:33;;;;;;;26.80;17.50;;;5.20;99.90;;;;;;5052341;28;20484;-50
2021/11/07 04:07:59;;;;;;;27.42;17.42;;;5.20;99.90;;;;;;5051444;28;20513;-51
2021/11/07 04:10:25;;;;;;;28.05;16.90;;;5.30;99.90;;;;;;5052000;28;20017;-55
2021/11/07 04:12:51;;;;;;;27.00;16.75;;;5.30;99.90;;;;;;5050704;28;20032;-56
2021/11/07 04:15:17;;;;;;;31.52;18.50;;;5.30;99.90;;;;;;5051940;28;20025;-48
2021/11/07 04:17:43;;;;;;;36.03;19.13;;;5.40;99.90;;;;;;5051196;28;20116;-53
2021/11/07 04:20:09;;;;;;;27.63;17.65;;;5.30;99.90;;;;;;5051855;28;20129;-54
2021/11/07 04:22:35;;;;;;;31.90;17.17;;;5.40;99.90;;;;;;5033652;28;20106;-53
2021/11/07 04:25:00;;;;;;;27.05;17.48;;;5.40;99.90;;;;;;5051865;28;20029;-55
2021/11/07 04:27:26;;;;;;;26.13;15.90;;;5.40;99.90;;;;;;5051200;28;20032;-50
2021/11/07 04:29:52;;;;;;;28.23;18.40;;;5.40;99.90;;;;;;5051985;28;20025;-48
2021/11/07 04:32:18;;;;;;;29.17;17.83;;;5.40;99.90;;;;;;5050862;28;20021;-53
2021/11/07 04:34:44;;;;;;;29.50;18.00;;;5.40;99.90;;;;;;5051811;28;20025;-51
2021/11/07 04:37:09;;;;;;;27.13;15.88;;;5.40;99.90;;;;;;5051810;28;20021;-54
2021/11/07 04:39:35;;;;;;;30.50;17.65;;;5.40;99.90;;;;;;5052911;28;20029;-55
2021/11/07 04:42:01;;;;;;;31.48;17.63;;;5.40;99.90;;;;;;5052249;28;20044;-54
2021/11/07 04:44:28;;;;;;;28.90;17.42;;;5.50;99.90;;;;;;5052497;28;20032;-52
2021/11/07 04:46:54;;;;;;;31.05;18.02;;;5.50;99.90;;;;;;5051753;28;20098;-55
2021/11/07 04:49:20;;;;;;;28.73;16.33;;;5.50;99.90;;;;;;5051990;28;20074;-51
2021/11/07 04:51:47;;;;;;;30.23;17.48;;;5.60;99.90;;;;;;5051845;28;20021;-53
2021/11/07 04:54:12;;;;;;;27.48;16.60;;;5.60;99.90;;;;;;5051478;28;20047;-53
2021/11/07 04:56:38;;;;;;;27.88;17.02;;;5.60;99.90;;;;;;5050775;28;20479;-51
2021/11/07 04:59:04;;;;;;;29.25;16.88;;;5.60;99.90;;;;;;5051863;28;20021;-48
2021/11/07 05:01:29;;;;;;;26.48;16.50;;;5.70;99.90;;;;;;5051221;28;20382;-51
2021/11/07 05:03:55;;;;;;;33.25;18.83;;;5.60;99.90;;;;;;5051106;28;20048;-49
2021/11/07 05:06:22;;;;;;;31.45;18.27;;;5.70;99.90;;;;;;5050461;28;20037;-49
2021/11/07 05:08:47;;;;;;;34.83;17.73;;;5.70;99.90;;;;;;5050994;28;20100;-57
2021/11/07 05:11:13;;;;;;;30.08;17.83;;;5.70;99.90;;;;;;5051116;28;20103;-49
2021/11/07 05:13:39;;;;;;;34.63;18.45;;;5.70;99.90;;;;;;5050960;28;20436;-51
2021/11/07 05:16:05;;;;;;;33.42;18.33;;;5.70;99.90;;;;;;5051070;28;20028;-49
2021/11/07 05:18:30;;;;;;;37.10;18.83;;;5.70;99.90;;;;;;5050446;28;20027;-52
2021/11/07 05:20:56;;;;;;;29.33;17.58;;;5.70;99.90;;;;;;5033007;28;20138;-53
2021/11/07 05:23:21;;;;;;;34.33;18.42;;;5.70;99.90;;;;;;5050839;28;20116;-51
2021/11/07 05:25:47;;;;;;;35.17;17.27;;;5.80;99.90;;;;;;5050973;28;20076;-51
2021/11/07 05:28:13;;;;;;;28.08;17.17;;;5.90;99.90;;;;;;5050227;28;20482;-51
2021/11/07 05:30:38;;;;;;;29.70;18.02;;;5.90;99.90;;;;;;5050762;28;20155;-52
2021/11/07 05:33:04;;;;;;;30.25;16.70;;;6.00;99.90;;;;;;5050736;28;20108;-50
2021/11/07 05:35:29;;;;;;;30.10;17.20;;;5.90;99.90;;;;;;5050937;28;20483;-50
2021/11/07 05:37:55;;;;;;;28.17;15.95;;;6.00;99.90;;;;;;5048482;28;20032;-50
2021/11/07 05:40:21;;;;;;;33.85;16.77;;;6.00;99.90;;;;;;5050688;28;20040;-52
2021/11/07 05:42:48;;;;;;;29.85;15.70;;;6.10;99.90;;;;;;5050363;28;20033;-53
2021/11/07 05:45:14;;;;;;;27.75;16.67;;;6.10;99.90;;;;;;5032675;28;20021;-49
2021/11/07 05:47:39;;;;;;;27.77;16.38;;;6.20;99.90;;;;;;5050089;28;20031;-51
2021/11/07 05:50:07;;;;;;;25.35;16.02;;;6.20;99.90;;;;;;5050613;28;20500;-53
2021/11/07 05:52:33;;;;;;;26.45;15.95;;;6.30;99.90;;;;;;5050353;28;20104;-56
2021/11/07 05:54:59;;;;;;;24.33;15.52;;;6.30;99.90;;;;;;5050439;28;20028;-54
2021/11/07 05:57:25;;;;;;;28.55;14.55;;;6.30;99.90;;;;;;5049640;28;20479;-53
2021/11/07 05:59:51;;;;;;;24.30;14.52;;;6.40;99.90;;;;;;5050673;28;20630;-53
2021/11/07 06:02:17;;;;;;;27.67;15.02;;;6.30;99.90;;;;;;5050094;28;20040;-55
2021/11/07 06:04:43;;;;;;;25.08;16.02;;;6.40;99.90;;;;;;5050302;28;20083;-55
2021/11/07 06:07:09;;;;;;;29.85;15.20;;;6.40;99.90;;;;;;5049507;28;20486;-57
2021/11/07 06:09:35;;;;;;;27.75;16.02;;;6.40;99.90;;;;;;5050267;28;20017;-50
2021/11/07 06:12:01;;;;;;;29.90;16.15;;;6.40;99.90;;;;;;5048489;28;20025;-56
2021/11/07 06:14:27;;;;;;;23.90;14.77;;;6.40;99.90;;;;;;5050202;28;20021;-55
2021/11/07 06:16:53;;;;;;;26.13;15.43;;;6.40;99.90;;;;;;5049372;28;20112;-53
2021/11/07 06:19:18;;;;;;;26.67;15.48;;;6.40;99.90;;;;;;5050264;28;20025;-53
2021/11/07 06:21:46;;;;;;;23.70;15.38;;;6.40;99.90;;;;;;5050297;28;20109;-49
2021/11/07 06:24:14;;;;;;;26.85;15.40;;;6.40;99.90;;;;;;5076348;22;20386;-48
2021/11/07 06:26:40;;;;;;;26.48;14.10;;;6.40;99.90;;;;;;5069290;28;20024;-49
2021/11/07 06:29:05;;;;;;;23.90;14.85;;;6.40;99.90;;;;;;5052320;28;20028;-53
2021/11/07 06:31:31;;;;;;;25.10;14.27;;;6.40;99.90;;;;;;5052146;28;20071;-50
2021/11/07 06:33:57;;;;;;;30.67;16.48;;;6.40;99.90;;;;;;5070158;28;20025;-51
2021/11/07 06:36:22;;;;;;;21.98;14.30;;;6.50;99.90;;;;;;5069459;28;20064;-49
2021/11/07 06:38:48;;;;;;;26.35;16.05;;;6.40;99.90;;;;;;5070175;28;20029;-50
2021/11/07 06:41:13;;;;;;;26.25;15.00;;;6.50;99.90;;;;;;5070033;28;20067;-49
2021/11/07 06:43:39;;;;;;;23.50;15.88;;;6.50;99.90;;;;;;5051881;28;20036;-50
2021/11/07 06:46:05;;;;;;;24.42;15.77;;;6.50;99.90;;;;;;5069992;28;20020;-51
2021/11/07 06:48:30;;;;;;;25.92;14.57;;;6.50;99.90;;;;;;5069554;28;20489;-49
2021/11/07 06:50:56;;;;;;;27.48;15.07;;;6.50;99.90;;;;;;5051693;28;20063;-53
2021/11/07 06:53:24;;;;;;;22.92;14.88;;;6.60;99.90;;;;;;5069846;28;20024;-50
2021/11/07 06:55:50;;;;;;;26.90;15.05;;;6.50;99.90;;;;;;5053734;28;20028;-52
2021/11/07 06:58:16;;;;;;;22.40;15.32;;;6.50;99.90;;;;;;5072912;28;20025;-51
2021/11/07 07:00:42;;;;;;;25.85;14.63;;;6.50;99.90;;;;;;5073623;28;20107;-50
2021/11/07 07:03:07;;;;;;;20.25;13.32;;;6.50;99.90;;;;;;5073191;28;20031;-53
2021/11/07 07:05:33;;;;;;;22.98;14.10;;;6.50;99.90;;;;;;5073373;28;20031;-52
2021/11/07 07:08:08;;;;;;;23.67;13.35;;;6.50;99.90;;;;;;5072583;28;20023;-53
2021/11/07 07:10:43;;;;;;;28.70;14.90;;;6.60;99.90;;;;;;5073631;28;20496;-50
2021/11/07 07:13:14;;;;;;;24.67;14.45;;;6.60;99.90;;;;;;5073292;28;20102;-52
2021/11/07 07:15:48;;;;;;;22.35;13.60;;;6.60;99.90;;;;;;5073344;28;20106;-51
2021/11/07 07:23:36;;;;;;;22.83;13.60;;;6.60;99.90;;;;;;5073083;28;20036;-53
2021/11/07 07:35:50;;;;;;;21.90;13.43;;;6.60;99.90;;;;;;5073033;28;20025;-51
2021/11/07 07:38:15;;;;;;;20.23;13.02;;;6.60;99.90;;;;;;5070206;28;20093;-51
2021/11/07 07:40:42;;;;;;;26.33;13.80;;;6.60;99.90;;;;;;5072611;28;20021;-51
2021/11/07 07:43:07;;;;;;;19.10;11.63;;;6.60;99.90;;;;;;5072413;28;20067;-51
2021/11/07 07:45:33;;;;;;;23.05;12.38;;;6.60;99.90;;;;;;5072570;28;20398;-50
2021/11/07 07:48:00;;;;;;;21.30;13.80;;;6.60;99.90;;;;;;5072040;28;20423;-50
2021/11/07 07:50:26;;;;;;;20.33;11.90;;;6.60;99.90;;;;;;5054528;28;20020;-52
2021/11/07 07:52:52;;;;;;;19.92;13.18;;;6.60;99.90;;;;;;5072334;28;20630;-51
2021/11/07 07:55:18;;;;;;;19.30;13.32;;;6.60;99.90;;;;;;5072549;28;20021;-51
2021/11/07 07:57:45;;;;;;;20.23;11.82;;;6.60;99.90;;;;;;5053558;28;20032;-49
2021/11/07 08:00:13;;;;;;;18.88;12.32;;;6.60;99.90;;;;;;5072166;28;20029;-49
2021/11/07 08:02:39;;;;;;;21.83;12.48;;;6.60;99.90;;;;;;5054072;28;20413;-53
2021/11/07 08:05:06;;;;;;;21.48;13.23;;;6.70;99.90;;;;;;5072186;28;20420;-51
2021/11/07 08:07:31;;;;;;;21.30;13.32;;;6.70;99.90;;;;;;5071492;28;20502;-50
2021/11/07 08:09:57;;;;;;;20.95;13.55;;;6.70;99.90;;;;;;5070432;28;20028;-52
2021/11/07 08:12:23;;;;;;;23.35;13.23;;;6.70;99.90;;;;;;5072038;28;20051;-51
2021/11/07 08:14:49;;;;;;;16.35;12.70;;;6.70;99.90;;;;;;5071828;28;20540;-51
2021/11/07 08:17:15;;;;;;;20.02;11.63;;;6.70;99.90;;;;;;5053057;28;20044;-54
2021/11/07 08:19:41;;;;;;;19.67;12.73;;;6.70;99.90;;;;;;5071704;28;20036;-51
2021/11/07 08:22:07;;;;;;;19.92;12.30;;;6.80;99.90;;;;;;5071685;28;20038;-52
2021/11/07 08:24:35;;;;;;;16.00;11.85;;;6.80;99.90;;;;;;5053482;28;20044;-49
2021/11/07 08:27:01;;;;;;;17.67;11.63;;;6.90;99.90;;;;;;5071019;28;20107;-53
2021/11/07 08:29:27;;;;;;;22.67;12.10;;;6.90;99.90;;;;;;5071793;28;20172;-52
2021/11/07 08:31:53;;;;;;;20.77;12.02;;;7.00;99.90;;;;;;5071806;28;20139;-53
2021/11/07 08:34:23;;;;;;;16.70;11.88;;;7.00;99.90;;;;;;5071849;28;20028;-54
2021/11/07 08:39:27;;;;;;;19.80;11.40;;;7.10;99.90;;;;;;5071847;28;20028;-50
2021/11/07 08:41:58;;;;;;;19.88;12.35;;;7.10;99.90;;;;;;5071638;28;20043;-49
2021/11/07 09:00:56;;;;;;;17.52;10.63;;;7.20;99.90;;;;;;5071889;28;20163;-51
2021/11/07 09:03:41;;;;;;;20.10;12.05;;;7.20;99.90;;;;;;5053242;28;20048;-53
2021/11/07 09:08:45;;;;;;;34.92;14.02;;;7.10;99.90;;;;;;5071241;28;20311;-51
2021/11/07 09:11:13;;;;;;;20.02;10.85;;;7.10;99.90;;;;;;5070887;28;20022;-52
2021/11/07 09:13:38;;;;;;;17.98;11.48;;;7.10;99.90;;;;;;5070701;28;20028;-52
2021/11/07 09:16:05;;;;;;;19.02;11.45;;;7.10;99.90;;;;;;5070549;28;20026;-50
2021/11/07 09:18:32;;;;;;;16.73;12.35;;;7.20;99.90;;;;;;5051980;28;20028;-52
2021/11/07 09:21:08;;;;;;;20.50;11.45;;;7.20;99.90;;;;;;5070524;28;20032;-51
2021/11/07 09:23:46;;;;;;;13.48;9.30;;;7.20;99.90;;;;;;5070333;28;20029;-54
2021/11/07 09:28:46;;;;;;;14.48;10.65;;;7.40;99.90;;;;;;5070574;28;20474;-52
2021/11/07 09:31:33;;;;;;;16.08;10.00;;;7.50;99.90;;;;;;5070608;28;20078;-55
2021/11/07 09:36:34;;;;;;;13.40;9.13;;;7.60;99.90;;;;;;5068691;28;20440;-51
2021/11/07 09:44:21;;;;;;;19.55;12.98;;;7.50;99.90;;;;;;5070560;28;20024;-53
2021/11/07 09:47:00;;;;;;;;;;;7.40;99.90;;;;;;5070245;28;20389;-51
2021/11/07 09:49:30;;;;;;;17.83;12.02;;;7.30;99.90;;;;;;5052430;28;20010;-48
2021/11/07 09:52:10;;;;;;;23.10;12.10;;;7.20;99.90;;;;;;5070802;28;20385;-51
2021/11/07 09:54:37;;;;;;;16.95;10.95;;;7.10;99.90;;;;;;5070395;28;20060;-50
2021/11/07 09:57:03;;;;;;;21.45;11.52;;;7.00;99.90;;;;;;5051741;28;20024;-53
2021/11/07 09:59:30;;;;;;;19.33;11.65;;;7.10;99.90;;;;;;5070414;28;20073;-53
2021/11/07 10:02:00;;;;;;;17.65;11.23;;;7.10;99.90;;;;;;5052356;28;20024;-56
2021/11/07 10:04:32;;;;;;;21.17;11.85;;;7.10;99.90;;;;;;5070336;28;20017;-52
2021/11/07 10:07:19;;;;;;;16.27;11.13;;;7.10;99.90;;;;;;5069627;28;20485;-53
2021/11/07 10:09:51;;;;;;;15.43;10.20;;;7.10;99.90;;;;;;5070373;28;20555;-50
2021/11/07 10:12:24;;;;;;;12.50;8.70;;;7.20;99.90;;;;;;5070440;28;20116;-53
2021/11/07 10:14:55;;;;;;;17.77;11.25;;;7.30;99.90;;;;;;5052247;28;20024;-54
2021/11/07 10:17:42;;;;;;;12.98;8.50;;;7.20;99.90;;;;;;5069645;28;20071;-53
2021/11/07 10:23:12;;;;;;;6.03;4.43;;;7.50;99.90;;;;;;5070023;28;20039;-52
2021/11/07 10:25:47;;;;;;;6.57;3.90;;;7.60;99.90;;;;;;5070281;28;20033;-54
2021/11/07 10:28:20;;;;;;;3.13;2.60;;;7.70;99.90;;;;;;5069484;28;20024;-50
2021/11/07 10:30:59;;;;;;;2.42;2.25;;;7.90;99.90;;;;;;5071422;28;20020;-52
2021/11/07 10:45:06;;;;;;;1.70;1.60;;;8.40;99.90;;;;;;5074062;28;20063;-52
2021/11/07 10:52:47;;;;;;;1.38;1.27;;;8.50;99.90;;;;;;5074018;28;20062;-52
2021/11/07 10:55:19;;;;;;;1.38;1.38;;;8.60;99.90;;;;;;5055827;28;20048;-52
2021/11/07 10:57:46;;;;;;;1.70;1.60;;;8.60;99.90;;;;;;5073168;28;20047;-55
2021/11/07 11:00:18;;;;;;;1.55;1.45;;;8.70;99.90;;;;;;5055682;28;20392;-53
2021/11/07 11:02:46;;;;;;;2.08;1.88;;;8.80;99.90;;;;;;5055529;28;20033;-53
2021/11/07 11:05:21;;;;;;;1.65;1.55;;;8.80;99.90;;;;;;5073538;28;20413;-51
2021/11/07 11:07:59;;;;;;;1.60;1.50;;;8.80;99.90;;;;;;5072793;28;20028;-52
2021/11/07 11:11:03;;;;;;;1.73;1.63;;;8.80;99.90;;;;;;5073474;28;20063;-52
2021/11/07 11:13:56;;;;;;;2.00;1.80;;;8.80;99.90;;;;;;5073470;28;20017;-53
2021/11/07 11:27:53;;;;;;;2.40;2.20;;;8.90;99.90;;;;;;5072970;28;20516;-51
2021/11/07 11:33:17;;;;;;;2.60;2.40;;;8.90;99.90;;;;;;5073461;28;20492;-51
2021/11/07 11:36:04;;;;;;;1.90;1.80;;;8.90;99.90;;;;;;5055742;28;20077;-53
2021/11/07 11:41:20;;;;;;;2.35;2.22;;;8.80;99.90;;;;;;5072602;28;20020;-52
2021/11/07 11:43:49;;;;;;;3.28;2.40;;;8.80;99.90;;;;;;5071613;28;20032;-49
2021/11/07 11:46:44;;;;;;;2.35;2.25;;;8.80;99.90;;;;;;5067146;28;20021;-53
2021/11/07 11:49:42;;;;;;;2.20;2.10;;;8.90;99.90;;;;;;5052605;28;20021;-52
2021/11/07 11:52:17;;;;;;;3.67;2.17;;;8.80;99.90;;;;;;5071503;28;20016;-51
2021/11/07 11:59:58;;;;;;;2.78;2.58;;;8.90;99.90;;;;;;5057785;28;20530;-49
2021/11/07 12:02:37;;;;;;;2.30;2.20;;;8.90;99.90;;;;;;5073047;28;20025;-50
2021/11/07 12:08:07;;;;;;;2.55;2.35;;;8.90;99.90;;;;;;5037329;28;20059;-50
2021/11/07 12:10:39;;;;;;;2.70;2.50;;;9.10;99.90;;;;;;5072049;28;20031;-49
2021/11/07 12:13:31;;;;;;;2.15;2.03;;;9.10;99.90;;;;;;5071746;28;20023;-51
2021/11/07 12:16:01;;;;;;;2.25;2.15;;;9.10;99.90;;;;;;5067375;28;20032;-51
2021/11/07 12:18:26;;;;;;;3.70;2.88;;;9.10;99.90;;;;;;5071475;28;20101;-53
2021/11/07 12:20:56;;;;;;;4.68;3.20;;;9.00;99.90;;;;;;5053166;28;20478;-46
2021/11/07 12:25:58;;;;;;;2.57;2.37;;;9.10;99.90;;;;;;5051574;28;20041;-48
2021/11/07 12:28:44;;;;;;;2.63;2.42;;;9.10;99.90;;;;;;5055148;28;20068;-49
2021/11/07 12:31:10;;;;;;;2.30;2.10;;;9.20;99.90;;;;;;5033559;28;20031;-51
2021/11/07 12:33:49;;;;;;;2.72;2.53;;;9.20;99.90;;;;;;5033799;28;20468;-47
2021/11/07 12:41:43;;;;;;;3.13;2.50;;;9.30;99.90;;;;;;5042385;28;20075;-49
2021/11/07 12:44:21;;;;;;;2.80;2.60;;;9.30;99.90;;;;;;5027344;28;20429;-49
2021/11/07 12:46:56;;;;;;;4.65;2.50;;;9.30;99.90;;;;;;5042896;28;20066;-51
2021/11/07 12:49:30;;;;;;;2.50;2.30;;;9.30;99.90;;;;;;5050780;28;20382;-52
2021/11/07 12:51:57;;;;;;;2.72;2.53;;;9.30;99.90;;;;;;5048506;28;20017;-48
2021/11/07 12:54:23;;;;;;;3.30;3.05;;;9.30;99.90;;;;;;5026477;28;20493;-50
2021/11/07 12:56:56;;;;;;;3.80;2.88;;;9.30;99.90;;;;;;5030641;28;20018;-50
2021/11/07 12:59:29;;;;;;;3.95;2.92;;;9.20;99.90;;;;;;5031759;28;20025;-49
2021/11/07 13:02:01;;;;;;;3.47;3.17;;;9.30;99.90;;;;;;5031479;28;20030;-48
2021/11/07 13:04:29;;;;;;;2.92;2.72;;;9.30;99.90;;;;;;5013537;28;20112;-52
2021/11/07 13:06:57;;;;;;;3.72;2.67;;;9.30;99.90;;;;;;5012712;28;20022;-48
2021/11/07 13:09:32;;;;;;;3.40;3.10;;;9.30;99.90;;;;;;5044551;28;20025;-52
2021/11/07 13:12:09;;;;;;;3.05;2.85;;;9.30;99.90;;;;;;5031365;28;20021;-50
2021/11/07 13:15:08;;;;;;;4.05;3.58;;;9.40;99.90;;;;;;5030879;28;20495;-51
2021/11/07 13:21:33;;;;;;;2.80;2.60;;;9.60;99.90;;;;;;5002132;28;20083;-52
2021/11/07 13:26:44;;;;;;;3.38;3.08;;;9.70;99.90;;;;;;5035852;28;20063;-51
2021/11/07 13:31:49;;;;;;;3.10;2.90;;;9.70;99.90;;;;;;5030916;28;20105;-54
2021/11/07 13:34:18;;;;;;;3.08;2.78;;;9.70;99.90;;;;;;5042501;28;20101;-51
2021/11/07 13:36:46;;;;;;;3.47;3.17;;;9.80;99.90;;;;;;5030995;28;20029;-50
2021/11/07 13:39:38;;;;;;;4.30;3.92;;;9.70;99.90;;;;;;5049377;28;20028;-50
2021/11/07 13:42:15;;;;;;;2.97;2.78;;;9.70;99.90;;;;;;5048834;28;20474;-50
2021/11/07 13:44:47;;;;;;;4.82;3.15;;;9.70;99.90;;;;;;5033180;28;20033;-51
2021/11/07 13:47:13;;;;;;;3.22;3.03;;;9.70;99.90;;;;;;5030061;28;20069;-50
2021/11/07 13:49:49;;;;;;;3.83;3.47;;;9.70;99.90;;;;;;5030448;28;20483;-48
2021/11/07 13:52:16;;;;;;;3.80;3.35;;;9.80;99.90;;;;;;5011021;28;20746;-50
2021/11/07 13:54:42;;;;;;;3.67;3.38;;;9.80;99.90;;;;;;5030061;28;20044;-52
2021/11/07 13:57:08;;;;;;;52.90;28.17;;;9.80;99.90;;;;;;5029700;28;20029;-52
2021/11/07 13:59:39;;;;;;;11.27;7.43;;;9.80;99.90;;;;;;5030394;28;20036;-52
2021/11/07 14:02:14;;;;;;;3.75;3.40;;;9.80;99.90;;;;;;5030351;28;20102;-47
2021/11/07 14:04:53;;;;;;;3.70;3.40;;;9.90;99.90;;;;;;5032436;28;20502;-54
2021/11/07 14:07:27;;;;;;;3.80;3.05;;;9.90;99.90;;;;;;5018504;28;20029;-51
2021/11/07 14:10:13;;;;;;;4.75;3.72;;;10.00;99.90;;;;;;5036900;28;20030;-53
2021/11/07 14:12:50;;;;;;;3.78;3.47;;;9.90;99.90;;;;;;5037089;28;20097;-48
2021/11/07 14:15:22;;;;;;;4.50;4.10;;;9.80;99.90;;;;;;5019039;28;20441;-53
2021/11/07 14:17:50;;;;;;;3.40;3.10;;;9.80;99.90;;;;;;5019288;28;20083;-50
2021/11/07 14:21:01;;;;;;;3.95;3.65;;;9.70;99.90;;;;;;5037014;28;20022;-53
2021/11/07 14:23:54;;;;;;;5.68;4.03;;;9.80;99.90;;;;;;5015892;28;20449;-56
2021/11/07 14:26:31;;;;;;;4.50;3.70;;;9.80;99.90;;;;;;5036618;28;20037;-55
2021/11/07 14:29:14;;;;;;;3.85;3.33;;;9.80;99.90;;;;;;5037064;28;20056;-53
2021/11/07 14:37:04;;;;;;;4.50;4.10;;;9.70;99.90;;;;;;5036934;28;20462;-49
2021/11/07 14:42:38;;;;;;;3.83;3.53;;;9.70;99.90;;;;;;4998198;28;20036;-50
2021/11/07 14:48:02;;;;;;;3.95;3.55;;;9.70;99.90;;;;;;5036367;28;20403;-52
2021/11/07 14:53:37;;;;;;;3.80;3.15;;;9.70;99.90;;;;;;4936475;29;20042;-52
2021/11/07 14:56:14;;;;;;;3.67;3.15;;;9.60;99.90;;;;;;5021006;28;20047;-55
2021/11/07 15:01:35;;;;;;;3.92;3.35;;;9.70;99.90;;;;;;5036610;28;20037;-54
2021/11/07 15:06:38;;;;;;;3.40;3.10;;;9.60;99.90;;;;;;5036394;28;20025;-49
2021/11/07 15:09:12;;;;;;;4.90;3.45;;;9.60;99.90;;;;;;5036025;28;20430;-54
2021/11/07 15:11:55;;;;;;;5.82;4.40;;;9.60;99.90;;;;;;5036278;28;20075;-48
2021/11/07 15:14:34;;;;;;;4.43;3.55;;;9.60;99.90;;;;;;5036204;28;20040;-55
2021/11/07 15:17:14;;;;;;;3.28;2.90;;;9.60;99.90;;;;;;5033361;28;20097;-53
2021/11/07 15:19:52;;;;;;;3.58;3.25;;;9.60;99.90;;;;;;5035814;28;20028;-55
2021/11/07 15:22:21;;;;;;;4.25;3.60;;;9.70;99.90;;;;;;5033465;28;20030;-52
2021/11/07 15:24:47;;;;;;;3.60;3.30;;;9.60;99.90;;;;;;5034535;28;20029;-49
2021/11/07 15:27:23;;;;;;;2.97;2.78;;;9.50;99.90;;;;;;5031742;28;20017;-51
2021/11/07 15:29:59;;;;;;;3.47;3.17;;;9.50;99.90;;;;;;5051545;28;20036;-49
2021/11/07 15:32:27;;;;;;;4.95;3.35;;;9.50;99.90;;;;;;5052665;28;20486;-50
2021/11/07 15:34:53;;;;;;;3.75;3.42;;;9.40;99.90;;;;;;5041892;28;20103;-50
2021/11/07 15:37:30;;;;;;;3.95;3.17;;;9.40;99.90;;;;;;5032709;28;20428;-52
2021/11/07 15:40:03;;;;;;;3.58;3.28;;;9.40;99.90;;;;;;5033409;28;20354;-51
2021/11/07 15:42:37;;;;;;;5.45;3.20;;;9.30;99.90;;;;;;5045139;28;20025;-49
2021/11/07 15:45:09;;;;;;;3.63;3.33;;;9.30;99.90;;;;;;5041241;28;20021;-48